DCOIN EDDH-EDXW
Flight info
| Callsign | DCOIN |
|---|---|
| Flight time | 0h 21m |
| Altitude | 10000 |
| Route | SOKWO1G/33 SOKWO T814 EXNEL DCT OLDIP |
| Aircraft | PC24/M-SBDGIRWY/LB2 |
Departure
| Time | 2026-04-30 17:41 |
|---|---|
| Airport | Hamburg Helmut Schmidt Airport (EDDH) |
Arrival
| Time | 2026-04-30 18:02 |
|---|---|
| Airport | Westerland Sylt Airport (EDXW) |
| Time | Latitude | Longitude | Altitude | Speed | Heading |
|---|---|---|---|---|---|
| 2026-04-30 17:39 | 53.62750 | 9.99844 | 41 ft | 0 kts | 334° |
| 2026-04-30 17:41 | 53.68874 | 9.94751 | 4964 ft | 199 kts | 349° |
| 2026-04-30 17:42 | 53.72212 | 9.94740 | 5003 ft | 255 kts | 6° |
| 2026-04-30 17:42 | 53.76912 | 9.98430 | 4995 ft | 249 kts | 35° |
| 2026-04-30 17:43 | 53.79664 | 10.01412 | 4977 ft | 217 kts | 35° |
| 2026-04-30 17:44 | 53.83436 | 10.05550 | 7066 ft | 219 kts | 36° |
| 2026-04-30 17:44 | 53.87402 | 10.09885 | 9544 ft | 251 kts | 33° |
| 2026-04-30 17:46 | 53.95314 | 10.04525 | 11140 ft | 305 kts | 301° |
| 2026-04-30 17:47 | 54.00811 | 9.93185 | 14498 ft | 320 kts | 313° |
| 2026-04-30 17:48 | 54.06727 | 9.81474 | 18165 ft | 333 kts | 314° |
| 2026-04-30 17:48 | 54.11499 | 9.72039 | 19635 ft | 371 kts | 314° |
| 2026-04-30 17:49 | 54.18338 | 9.58440 | 20422 ft | 380 kts | 314° |
| 2026-04-30 17:50 | 54.25214 | 9.44701 | 20424 ft | 382 kts | 313° |
| 2026-04-30 17:51 | 54.30402 | 9.34289 | 19933 ft | 383 kts | 313° |
| 2026-04-30 17:52 | 54.35462 | 9.24078 | 18629 ft | 368 kts | 313° |
| 2026-04-30 17:53 | 54.43642 | 9.07497 | 16291 ft | 361 kts | 312° |
| 2026-04-30 17:54 | 54.50081 | 8.94364 | 14351 ft | 359 kts | 312° |
| 2026-04-30 17:55 | 54.56294 | 8.81617 | 11260 ft | 334 kts | 311° |
| 2026-04-30 17:56 | 54.62146 | 8.69870 | 8045 ft | 313 kts | 323° |
| 2026-04-30 17:57 | 54.67417 | 8.63449 | 5460 ft | 306 kts | 326° |
| 2026-04-30 17:58 | 54.72486 | 8.57269 | 4151 ft | 296 kts | 325° |
| 2026-04-30 17:59 | 54.78406 | 8.50049 | 2984 ft | 229 kts | 325° |
| 2026-04-30 18:00 | 54.83390 | 8.43684 | 1880 ft | 210 kts | 327° |
| 2026-04-30 18:00 | 54.86594 | 8.39818 | 1131 ft | 160 kts | 328° |
| 2026-04-30 18:01 | 54.88196 | 8.37890 | 627 ft | 117 kts | 326° |
| 2026-04-30 18:02 | 54.90101 | 8.35554 | 171 ft | 109 kts | 326° |
| 2026-04-30 18:02 | 54.91643 | 8.33646 | 40 ft | 48 kts | 319° |
| 2026-04-30 18:03 | 54.91875 | 8.33373 | 38 ft | 14 kts | 332° |
| 2026-04-30 18:04 | 54.91979 | 8.33669 | 37 ft | 5 kts | 66° |
| 2026-04-30 18:05 | 54.91998 | 8.33735 | 40 ft | 1 kts | 60° |
| 2026-04-30 18:06 | 54.92050 | 8.33813 | 43 ft | 8 kts | 35° |
| 2026-04-30 18:07 | 54.92057 | 8.33767 | 43 ft | 0 kts | 268° |
| 2026-04-30 18:08 | 54.92057 | 8.33766 | 43 ft | 0 kts | 268° |